Time;durP1;ratioP1;P1;durP2;ratioP2;P2;SDS_P1;SDS_P2;PMS_P1;PMS_P2;Temp;Humidity;BMP_temperature;BMP_pressure;BME280_temperature;BME280_humidity;BME280_pressure;Samples;Min_cycle;Max_cycle;Signal;HPM_P1;HPM_P2
2024/01/23 00:02:13;;;;;;;25.55;7.22;;;;;;;;;;5053489;28;20025;-63
2024/01/23 00:04:38;;;;;;;29.57;7.57;;;;;;;;;;5051515;28;20036;-63
2024/01/23 00:07:03;;;;;;;30.33;8.30;;;;;;;;;;5052744;28;20027;-64
2024/01/23 00:09:28;;;;;;;21.52;7.80;;;;;;;;;;5051830;28;20492;-63
2024/01/23 00:11:58;;;;;;;24.03;6.97;;;;;;;;;;5052850;28;20094;-65
2024/01/23 00:14:23;;;;;;;27.83;7.10;;;;;;;;;;5049992;28;20532;-64
2024/01/23 00:16:48;;;;;;;33.43;12.63;;;;;;;;;;5052830;28;20017;-64
2024/01/23 00:19:13;;;;;;;30.97;7.93;;;;;;;;;;5051457;28;20455;-64
2024/01/23 00:21:38;;;;;;;31.20;10.10;;;;;;;;;;5052096;28;20451;-64
2024/01/23 00:24:04;;;;;;;26.83;6.35;;;;;;;;;;5051433;28;21131;-64
2024/01/23 00:26:29;;;;;;;33.08;9.82;;;;;;;;;;5052717;28;20020;-64
2024/01/23 00:28:54;;;;;;;21.60;8.70;;;;;;;;;;5050746;28;20025;-64
2024/01/23 00:31:19;;;;;;;22.27;7.85;;;;;;;;;;5052903;28;20017;-63
2024/01/23 00:33:45;;;;;;;33.93;7.33;;;;;;;;;;5051249;28;20056;-63
2024/01/23 00:36:10;;;;;;;28.23;7.27;;;;;;;;;;5052172;28;20969;-64
2024/01/23 00:38:35;;;;;;;23.57;8.03;;;;;;;;;;5050291;28;20455;-63
2024/01/23 00:41:00;;;;;;;33.77;8.90;;;;;;;;;;5052561;28;20457;-64
2024/01/23 00:43:26;;;;;;;23.42;6.68;;;;;;;;;;5050781;28;20430;-63
2024/01/23 00:45:51;;;;;;;34.88;7.03;;;;;;;;;;5052013;28;20223;-63
2024/01/23 00:48:16;;;;;;;34.77;9.47;;;;;;;;;;5052462;28;20100;-63
2024/01/23 00:50:41;;;;;;;27.13;7.23;;;;;;;;;;5049904;28;20455;-63
2024/01/23 00:53:06;;;;;;;22.17;7.63;;;;;;;;;;5051961;28;20435;-64
2024/01/23 00:55:32;;;;;;;22.03;8.93;;;;;;;;;;5050813;28;20037;-64
2024/01/23 00:57:57;;;;;;;18.33;7.40;;;;;;;;;;5051384;28;20792;-64
2024/01/23 01:00:22;;;;;;;19.27;7.83;;;;;;;;;;5050717;28;20454;-65
2024/01/23 01:02:47;;;;;;;10.47;3.83;;;;;;;;;;5051664;28;20446;-64
2024/01/23 01:05:12;;;;;;;22.67;6.40;;;;;;;;;;5050200;28;20509;-64
2024/01/23 01:07:38;;;;;;;23.08;6.85;;;;;;;;;;5051672;28;21012;-64
2024/01/23 01:10:04;;;;;;;14.10;5.43;;;;;;;;;;5050626;28;20033;-64
2024/01/23 01:12:29;;;;;;;36.47;10.88;;;;;;;;;;5051612;28;20036;-64
2024/01/23 01:14:55;;;;;;;26.65;9.30;;;;;;;;;;5050145;28;20432;-64
2024/01/23 01:17:20;;;;;;;22.85;6.45;;;;;;;;;;5051846;28;20033;-64
2024/01/23 01:19:45;;;;;;;18.43;5.73;;;;;;;;;;5049710;28;20040;-64
2024/01/23 01:22:10;;;;;;;17.83;7.50;;;;;;;;;;5051606;28;20017;-64
2024/01/23 01:24:35;;;;;;;20.90;8.13;;;;;;;;;;5049881;28;20452;-64
2024/01/23 01:27:01;;;;;;;27.20;5.93;;;;;;;;;;5051321;28;20075;-64
2024/01/23 01:29:26;;;;;;;26.77;5.90;;;;;;;;;;5050076;28;20478;-64
2024/01/23 01:31:51;;;;;;;39.03;10.53;;;;;;;;;;5051177;28;20056;-64
2024/01/23 01:34:16;;;;;;;16.35;5.68;;;;;;;;;;5049975;28;20455;-64
2024/01/23 01:36:41;;;;;;;25.17;7.60;;;;;;;;;;5050864;28;20025;-64
2024/01/23 01:39:07;;;;;;;25.43;7.43;;;;;;;;;;5049629;28;20124;-64
2024/01/23 01:41:32;;;;;;;32.97;8.47;;;;;;;;;;5051352;28;20043;-63
2024/01/23 01:43:57;;;;;;;16.27;6.47;;;;;;;;;;5049380;28;20044;-64
2024/01/23 01:46:24;;;;;;;28.23;7.68;;;;;;;;;;5051333;28;20502;-64
2024/01/23 01:48:49;;;;;;;30.60;6.53;;;;;;;;;;5049621;28;20025;-63
2024/01/23 01:51:15;;;;;;;33.88;9.35;;;;;;;;;;5051002;28;20376;-64
2024/01/23 01:53:41;;;;;;;25.42;6.63;;;;;;;;;;5049450;28;20388;-63
2024/01/23 01:56:07;;;;;;;24.00;5.68;;;;;;;;;;5051131;28;20028;-65
2024/01/23 01:58:33;;;;;;;17.50;6.43;;;;;;;;;;5049362;28;20468;-64
2024/01/23 02:01:02;;;;;;;26.98;6.55;;;;;;;;;;5051386;28;20367;-65
2024/01/23 02:03:27;;;;;;;;;;;;;;;;;;5050023;28;20463;-64
2024/01/23 02:05:53;;;;;;;22.73;7.30;;;;;;;;;;5050424;28;19935;-64
2024/01/23 02:08:18;;;;;;;37.83;10.38;;;;;;;;;;5050972;28;20481;-65
2024/01/23 02:10:44;;;;;;;31.45;9.57;;;;;;;;;;5049184;28;20029;-65
2024/01/23 02:13:09;;;;;;;15.88;7.20;;;;;;;;;;5050612;28;20100;-64
2024/01/23 02:15:35;;;;;;;22.87;7.10;;;;;;;;;;5049103;28;20112;-65
2024/01/23 02:18:00;;;;;;;33.65;10.45;;;;;;;;;;5050810;28;20431;-65
2024/01/23 02:20:26;;;;;;;24.90;7.40;;;;;;;;;;5048793;28;20045;-64
2024/01/23 02:22:51;;;;;;;15.85;9.23;;;;;;;;;;5050333;28;20229;-65
2024/01/23 02:25:17;;;;;;;28.98;6.25;;;;;;;;;;5049307;28;20029;-64
2024/01/23 02:27:42;;;;;;;26.02;7.50;;;;;;;;;;5050447;28;20379;-65
2024/01/23 02:30:07;;;;;;;17.77;7.93;;;;;;;;;;5049280;28;20058;-65
2024/01/23 02:32:33;;;;;;;21.40;7.97;;;;;;;;;;5050643;28;20031;-65
2024/01/23 02:34:58;;;;;;;24.35;7.57;;;;;;;;;;5048919;28;20033;-65
2024/01/23 02:37:23;;;;;;;27.90;9.83;;;;;;;;;;5051675;28;20098;-65
2024/01/23 02:39:48;;;;;;;27.67;7.47;;;;;;;;;;5053080;28;20454;-66
2024/01/23 02:42:14;;;;;;;48.57;8.53;;;;;;;;;;5054363;28;20025;-65
2024/01/23 02:44:45;;;;;;;20.90;7.03;;;;;;;;;;5052979;28;20445;-65
2024/01/23 02:47:10;;;;;;;31.65;8.43;;;;;;;;;;5038593;28;20418;-64
2024/01/23 02:49:36;;;;;;;13.17;5.07;;;;;;;;;;5052567;28;20112;-63
2024/01/23 02:52:03;;;;;;;22.58;5.60;;;;;;;;;;5054745;28;20492;-64
2024/01/23 02:54:29;;;;;;;19.73;6.43;;;;;;;;;;5053166;28;20593;-63
2024/01/23 02:56:54;;;;;;;24.50;6.30;;;;;;;;;;5054111;28;20032;-64
2024/01/23 02:59:19;;;;;;;17.83;8.67;;;;;;;;;;5052916;28;20101;-64
2024/01/23 03:01:44;;;;;;;26.80;6.40;;;;;;;;;;5054143;28;20436;-63
2024/01/23 03:04:09;;;;;;;23.03;8.20;;;;;;;;;;5052530;28;20440;-64
2024/01/23 03:06:34;;;;;;;25.93;7.60;;;;;;;;;;5053764;28;20476;-64
2024/01/23 03:09:00;;;;;;;21.10;6.07;;;;;;;;;;5052938;28;20025;-64
2024/01/23 03:11:25;;;;;;;43.10;11.17;;;;;;;;;;5053851;28;20442;-64
2024/01/23 03:13:50;;;;;;;30.40;6.87;;;;;;;;;;5052438;28;20534;-64
2024/01/23 03:16:15;;;;;;;24.20;6.80;;;;;;;;;;5053966;28;20025;-64
2024/01/23 03:18:40;;;;;;;19.63;7.27;;;;;;;;;;5051919;28;20044;-64
2024/01/23 03:21:05;;;;;;;25.23;6.57;;;;;;;;;;5053931;28;20498;-64
2024/01/23 03:23:31;;;;;;;17.73;5.00;;;;;;;;;;5052706;28;20211;-64
2024/01/23 03:25:56;;;;;;;12.90;5.63;;;;;;;;;;5053350;28;20145;-64
2024/01/23 03:28:23;;;;;;;18.23;6.07;;;;;;;;;;5052429;28;20419;-64
2024/01/23 03:30:48;;;;;;;27.33;8.05;;;;;;;;;;5052372;28;20435;-65
2024/01/23 03:33:14;;;;;;;27.13;8.53;;;;;;;;;;5053348;28;20104;-64
2024/01/23 03:35:39;;;;;;;33.92;9.32;;;;;;;;;;5051976;28;21031;-64
2024/01/23 03:38:04;;;;;;;32.10;7.15;;;;;;;;;;5053505;28;20396;-65
2024/01/23 03:40:30;;;;;;;29.15;7.15;;;;;;;;;;5051862;28;20040;-65
2024/01/23 03:42:55;;;;;;;26.13;7.37;;;;;;;;;;5053417;28;20025;-65
2024/01/23 03:45:20;;;;;;;13.87;7.37;;;;;;;;;;5051858;28;21019;-64
2024/01/23 03:47:45;;;;;;;28.88;4.82;;;;;;;;;;5052627;28;20426;-63
2024/01/23 03:50:11;;;;;;;20.05;5.05;;;;;;;;;;5051959;28;20029;-64
2024/01/23 03:52:36;;;;;;;15.65;6.18;;;;;;;;;;5053567;28;20017;-64
2024/01/23 03:55:02;;;;;;;27.55;5.55;;;;;;;;;;5051558;28;20041;-64
2024/01/23 03:57:28;;;;;;;23.40;6.60;;;;;;;;;;5053305;28;20509;-64
2024/01/23 03:59:53;;;;;;;20.83;6.47;;;;;;;;;;5051802;28;20037;-64
2024/01/23 04:02:21;;;;;;;20.52;8.70;;;;;;;;;;5053104;28;20231;-64
2024/01/23 04:04:46;;;;;;;29.95;7.25;;;;;;;;;;5051276;28;20044;-64
2024/01/23 04:07:11;;;;;;;28.45;6.78;;;;;;;;;;5053155;28;20021;-65
2024/01/23 04:09:37;;;;;;;27.10;8.13;;;;;;;;;;5051360;28;20060;-64
2024/01/23 04:12:02;;;;;;;23.30;7.50;;;;;;;;;;5053054;28;20447;-64
2024/01/23 04:14:27;;;;;;;20.60;8.32;;;;;;;;;;5051593;28;20028;-64
2024/01/23 04:16:52;;;;;;;40.53;9.20;;;;;;;;;;5052425;28;20109;-64
2024/01/23 04:19:17;;;;;;;19.03;7.60;;;;;;;;;;5051266;28;20455;-64
2024/01/23 04:21:43;;;;;;;21.87;7.90;;;;;;;;;;5052584;28;20501;-64
2024/01/23 04:24:08;;;;;;;47.10;12.45;;;;;;;;;;5051287;28;20490;-64
2024/01/23 04:26:34;;;;;;;42.93;7.93;;;;;;;;;;5052106;28;20017;-65
2024/01/23 04:28:59;;;;;;;16.10;5.90;;;;;;;;;;5051458;28;20490;-64
2024/01/23 04:31:25;;;;;;;25.13;8.73;;;;;;;;;;5052808;28;20017;-64
2024/01/23 04:33:50;;;;;;;22.17;8.07;;;;;;;;;;5050843;28;20455;-64
2024/01/23 04:36:16;;;;;;;30.90;12.13;;;;;;;;;;5052263;28;20090;-64
2024/01/23 04:38:42;;;;;;;33.22;7.85;;;;;;;;;;5050682;28;20077;-64
2024/01/23 04:41:07;;;;;;;29.45;7.70;;;;;;;;;;5052212;28;20082;-65
2024/01/23 04:43:32;;;;;;;22.33;6.38;;;;;;;;;;5051093;28;20016;-65
2024/01/23 04:45:59;;;;;;;21.17;6.97;;;;;;;;;;5051832;28;20025;-65
2024/01/23 04:48:24;;;;;;;43.50;7.90;;;;;;;;;;5050835;28;20510;-65
2024/01/23 04:50:49;;;;;;;29.37;9.03;;;;;;;;;;5052161;28;20455;-64
2024/01/23 04:53:14;;;;;;;29.80;6.20;;;;;;;;;;5052262;28;20440;-65
2024/01/23 04:55:39;;;;;;;33.50;9.77;;;;;;;;;;5050191;28;20448;-65
2024/01/23 04:58:05;;;;;;;29.27;7.17;;;;;;;;;;5052264;28;20446;-64
2024/01/23 05:00:30;;;;;;;37.13;8.17;;;;;;;;;;5050081;28;20547;-64
2024/01/23 05:02:55;;;;;;;23.75;6.47;;;;;;;;;;5051347;28;20458;-65
2024/01/23 05:05:20;;;;;;;35.57;8.57;;;;;;;;;;5050209;28;20108;-65
2024/01/23 05:07:45;;;;;;;29.77;8.47;;;;;;;;;;5051773;28;20499;-65
2024/01/23 05:10:10;;;;;;;29.53;6.47;;;;;;;;;;5050171;28;20508;-64
2024/01/23 05:12:36;;;;;;;30.83;7.00;;;;;;;;;;5051321;28;20036;-64
2024/01/23 05:15:03;;;;;;;30.43;10.53;;;;;;;;;;5050364;28;20546;-65
2024/01/23 05:17:29;;;;;;;16.17;6.30;;;;;;;;;;5053478;28;20431;-67
2024/01/23 05:19:54;;;;;;;16.17;6.30;;;;;;;;;;5049607;28;20120;-66
2024/01/23 05:22:19;;;;;;;22.53;7.60;;;;;;;;;;5051038;28;20411;-67
2024/01/23 05:24:44;;;;;;;29.88;8.95;;;;;;;;;;5048858;28;20468;-62
2024/01/23 05:27:09;;;;;;;31.77;6.97;;;;;;;;;;5051494;28;20108;-63
2024/01/23 05:29:35;;;;;;;28.85;6.95;;;;;;;;;;5050019;28;20075;-62
2024/01/23 05:32:00;;;;;;;30.07;8.23;;;;;;;;;;5050874;28;20025;-63
2024/01/23 05:34:25;;;;;;;38.53;10.37;;;;;;;;;;5049561;28;21024;-62
2024/01/23 05:36:51;;;;;;;24.93;7.83;;;;;;;;;;5051024;28;20435;-63
2024/01/23 05:39:16;;;;;;;30.60;7.25;;;;;;;;;;5049469;28;20467;-63
2024/01/23 05:41:42;;;;;;;27.02;7.63;;;;;;;;;;5051414;28;20029;-62
2024/01/23 05:44:07;;;;;;;51.97;11.20;;;;;;;;;;5049869;28;20377;-62
2024/01/23 05:46:33;;;;;;;38.67;10.60;;;;;;;;;;5050822;28;20439;-62
2024/01/23 05:48:59;;;;;;;25.05;7.15;;;;;;;;;;5049957;28;20029;-62
2024/01/23 05:51:25;;;;;;;22.80;7.10;;;;;;;;;;5051362;28;20541;-62
2024/01/23 05:53:50;;;;;;;26.53;10.00;;;;;;;;;;5049200;28;20064;-62
2024/01/23 05:56:15;;;;;;;25.73;6.90;;;;;;;;;;5051401;28;20013;-62
2024/01/23 05:58:41;;;;;;;38.13;8.73;;;;;;;;;;5049495;28;20444;-62
2024/01/23 06:01:06;;;;;;;28.80;8.00;;;;;;;;;;5051097;28;20013;-63
2024/01/23 06:03:32;;;;;;;27.27;8.53;;;;;;;;;;5049572;28;20090;-62
2024/01/23 06:05:57;;;;;;;25.43;8.77;;;;;;;;;;5050766;28;20500;-62
2024/01/23 06:08:22;;;;;;;33.00;7.00;;;;;;;;;;5044832;28;20013;-62
2024/01/23 06:10:47;;;;;;;16.97;7.47;;;;;;;;;;5049374;28;20842;-63
2024/01/23 06:13:12;;;;;;;31.33;5.90;;;;;;;;;;5048410;28;20107;-63
2024/01/23 06:15:37;;;;;;;25.50;8.37;;;;;;;;;;5047679;28;20558;-63
2024/01/23 06:18:03;;;;;;;16.03;6.73;;;;;;;;;;5049445;28;20442;-63
2024/01/23 06:20:28;;;;;;;25.77;8.07;;;;;;;;;;5048236;28;20532;-63
2024/01/23 06:22:53;;;;;;;17.00;5.03;;;;;;;;;;5049187;28;20375;-62
2024/01/23 06:25:19;;;;;;;22.00;8.00;;;;;;;;;;5047617;28;20486;-62
2024/01/23 06:27:44;;;;;;;19.70;5.77;;;;;;;;;;5049045;28;20432;-63
2024/01/23 06:30:11;;;;;;;44.72;10.32;;;;;;;;;;5048168;28;20507;-63
2024/01/23 06:32:36;;;;;;;36.35;7.82;;;;;;;;;;5048698;28;20495;-63
2024/01/23 06:35:02;;;;;;;31.63;7.63;;;;;;;;;;5048281;28;20036;-63
2024/01/23 06:37:27;;;;;;;23.98;5.63;;;;;;;;;;5050406;28;20036;-62
2024/01/23 06:39:52;;;;;;;34.33;7.07;;;;;;;;;;5048789;28;20037;-62
2024/01/23 06:42:17;;;;;;;24.53;6.93;;;;;;;;;;5050442;28;20031;-62
2024/01/23 06:44:42;;;;;;;30.87;9.40;;;;;;;;;;5046647;28;20472;-63
2024/01/23 06:47:08;;;;;;;26.15;10.05;;;;;;;;;;5048696;28;20441;-63
2024/01/23 06:49:33;;;;;;;26.17;8.25;;;;;;;;;;5048697;28;20037;-62
2024/01/23 06:51:59;;;;;;;33.93;13.20;;;;;;;;;;5050632;28;20105;-62
2024/01/23 06:54:24;;;;;;;27.90;6.78;;;;;;;;;;5048776;28;20787;-63
2024/01/23 06:56:49;;;;;;;30.40;8.60;;;;;;;;;;5050211;28;20044;-63
2024/01/23 06:59:15;;;;;;;47.00;9.32;;;;;;;;;;5049059;28;20462;-62
2024/01/23 07:01:41;;;;;;;21.13;6.00;;;;;;;;;;5049887;28;20024;-63
2024/01/23 07:04:06;;;;;;;29.67;9.85;;;;;;;;;;5044879;28;20051;-62
2024/01/23 07:06:31;;;;;;;36.90;7.93;;;;;;;;;;5029928;28;20108;-62
2024/01/23 07:08:57;;;;;;;30.07;7.43;;;;;;;;;;5028399;28;20530;-62
2024/01/23 07:11:22;;;;;;;20.60;6.93;;;;;;;;;;5028801;28;21021;-62
2024/01/23 07:13:47;;;;;;;36.60;8.83;;;;;;;;;;5028207;28;20550;-62
2024/01/23 07:16:12;;;;;;;39.13;13.40;;;;;;;;;;5030374;28;20432;-62
2024/01/23 07:18:38;;;;;;;42.97;9.83;;;;;;;;;;5038856;28;20029;-62
2024/01/23 07:21:03;;;;;;;31.83;5.95;;;;;;;;;;5050249;28;20071;-62
2024/01/23 07:23:29;;;;;;;34.75;9.98;;;;;;;;;;5049704;28;20476;-62
2024/01/23 07:25:54;;;;;;;28.07;7.10;;;;;;;;;;5053503;28;20138;-62
2024/01/23 07:28:19;;;;;;;21.42;6.80;;;;;;;;;;5052711;28;20771;-61
2024/01/23 07:30:44;;;;;;;34.07;9.77;;;;;;;;;;5053302;28;20092;-62
2024/01/23 07:33:09;;;;;;;24.63;7.43;;;;;;;;;;5053925;28;20411;-62
2024/01/23 07:35:35;;;;;;;25.95;7.65;;;;;;;;;;5052055;28;20463;-62
2024/01/23 07:38:00;;;;;;;25.17;7.67;;;;;;;;;;5053471;28;20399;-62
2024/01/23 07:40:25;;;;;;;20.17;6.40;;;;;;;;;;5052235;28;20451;-62
2024/01/23 07:42:50;;;;;;;24.58;8.38;;;;;;;;;;5053548;28;20021;-62
2024/01/23 07:45:16;;;;;;;33.22;10.65;;;;;;;;;;5051761;28;20112;-62
2024/01/23 07:47:41;;;;;;;28.38;6.32;;;;;;;;;;5053228;28;20017;-62
2024/01/23 07:50:08;;;;;;;21.43;6.90;;;;;;;;;;5051879;28;20036;-62
2024/01/23 07:52:33;;;;;;;21.00;5.82;;;;;;;;;;5053231;28;20427;-62
2024/01/23 07:54:58;;;;;;;38.60;10.77;;;;;;;;;;5052045;28;20030;-62
2024/01/23 07:57:23;;;;;;;21.70;9.03;;;;;;;;;;5053396;28;20057;-62
2024/01/23 07:59:49;;;;;;;32.47;7.78;;;;;;;;;;5051281;28;20542;-62
2024/01/23 08:02:14;;;;;;;25.85;8.52;;;;;;;;;;5053192;28;20032;-62
2024/01/23 08:04:39;;;;;;;38.90;9.88;;;;;;;;;;5051437;28;20037;-62
2024/01/23 08:07:04;;;;;;;30.38;8.85;;;;;;;;;;5052873;28;20020;-62
2024/01/23 08:09:29;;;;;;;27.00;6.22;;;;;;;;;;5051396;28;20044;-62
2024/01/23 08:11:55;;;;;;;37.42;13.18;;;;;;;;;;5056774;28;20028;-62
2024/01/23 08:14:20;;;;;;;46.20;8.87;;;;;;;;;;5070033;28;20123;-62
2024/01/23 08:16:45;;;;;;;32.40;8.02;;;;;;;;;;5071623;28;20028;-62
2024/01/23 08:19:11;;;;;;;35.13;9.38;;;;;;;;;;5069546;28;20024;-62
2024/01/23 08:21:36;;;;;;;26.10;7.17;;;;;;;;;;5070486;28;20044;-62
2024/01/23 08:24:01;;;;;;;26.50;8.02;;;;;;;;;;5069512;28;20461;-62
2024/01/23 08:26:26;;;;;;;35.03;10.13;;;;;;;;;;5070807;28;20044;-62
2024/01/23 08:28:51;;;;;;;24.58;7.25;;;;;;;;;;5069086;28;20810;-62
2024/01/23 08:31:17;;;;;;;29.83;9.83;;;;;;;;;;5071796;28;20384;-62
2024/01/23 08:33:43;;;;;;;23.48;10.05;;;;;;;;;;5064724;28;20443;-62
2024/01/23 08:36:08;;;;;;;25.58;8.20;;;;;;;;;;5051076;28;20499;-62
2024/01/23 08:38:33;;;;;;;26.45;8.48;;;;;;;;;;5050364;28;20060;-62
2024/01/23 08:40:59;;;;;;;38.70;10.47;;;;;;;;;;5052548;28;20070;-62
2024/01/23 08:43:24;;;;;;;46.97;10.77;;;;;;;;;;5051120;28;20973;-61
2024/01/23 08:45:49;;;;;;;20.00;7.33;;;;;;;;;;5051749;28;20419;-62
2024/01/23 08:48:14;;;;;;;33.00;8.93;;;;;;;;;;5052334;28;20419;-62
2024/01/23 08:50:40;;;;;;;22.50;8.73;;;;;;;;;;5050533;28;20033;-62
2024/01/23 08:53:05;;;;;;;24.05;6.80;;;;;;;;;;5051858;28;20032;-62
2024/01/23 08:55:31;;;;;;;23.60;7.82;;;;;;;;;;5050730;28;20067;-62
2024/01/23 08:57:56;;;;;;;31.37;7.80;;;;;;;;;;5051804;28;20398;-62
2024/01/23 09:00:21;;;;;;;29.00;9.27;;;;;;;;;;5049012;28;20443;-62
2024/01/23 09:02:46;;;;;;;40.50;10.65;;;;;;;;;;5050587;28;20550;-62
2024/01/23 09:05:11;;;;;;;32.33;10.37;;;;;;;;;;5050573;28;20029;-62
2024/01/23 09:07:37;;;;;;;25.57;7.17;;;;;;;;;;5051210;28;20445;-62
2024/01/23 09:10:02;;;;;;;35.47;8.73;;;;;;;;;;5050585;28;20452;-62
2024/01/23 09:12:33;;;;;;;47.03;10.57;;;;;;;;;;5051918;28;20490;-62
2024/01/23 09:14:58;;;;;;;25.23;8.93;;;;;;;;;;5050191;28;20039;-62
2024/01/23 09:17:23;;;;;;;24.67;7.13;;;;;;;;;;5050945;28;20017;-62
2024/01/23 09:19:49;;;;;;;24.73;6.60;;;;;;;;;;5050238;28;20849;-62
2024/01/23 09:22:15;;;;;;;29.17;9.97;;;;;;;;;;5051243;28;20456;-62
2024/01/23 09:24:40;;;;;;;33.92;9.15;;;;;;;;;;5050194;28;20060;-62
2024/01/23 09:27:05;;;;;;;16.50;6.28;;;;;;;;;;5051689;28;20036;-62
2024/01/23 09:29:31;;;;;;;24.50;7.18;;;;;;;;;;5050027;28;20076;-62
2024/01/23 09:31:56;;;;;;;27.88;9.15;;;;;;;;;;5051542;28;20021;-62
2024/01/23 09:34:21;;;;;;;32.70;8.03;;;;;;;;;;5049835;28;20036;-62
2024/01/23 09:36:46;;;;;;;27.92;7.03;;;;;;;;;;5051071;28;20427;-62
2024/01/23 09:39:13;;;;;;;20.40;7.33;;;;;;;;;;5050054;28;20415;-62
2024/01/23 09:41:43;;;;;;;33.45;11.18;;;;;;;;;;5051365;28;20025;-62
2024/01/23 09:44:10;;;;;;;30.25;10.02;;;;;;;;;;5049523;28;20029;-62
2024/01/23 09:46:36;;;;;;;26.27;8.45;;;;;;;;;;5050698;28;20046;-62
2024/01/23 09:49:01;;;;;;;25.52;8.63;;;;;;;;;;5049827;28;20087;-62
2024/01/23 09:51:27;;;;;;;24.40;7.65;;;;;;;;;;5051241;28;20091;-62
2024/01/23 09:53:52;;;;;;;26.80;8.40;;;;;;;;;;5049557;28;20028;-62
2024/01/23 09:56:17;;;;;;;40.97;8.95;;;;;;;;;;5051173;28;20428;-63
2024/01/23 09:58:42;;;;;;;33.65;8.80;;;;;;;;;;5048712;28;20124;-62
2024/01/23 10:01:08;;;;;;;27.45;8.35;;;;;;;;;;5051371;28;20178;-62
2024/01/23 10:03:36;;;;;;;31.03;8.43;;;;;;;;;;5049091;28;20554;-62
2024/01/23 10:06:01;;;;;;;35.38;8.15;;;;;;;;;;5050575;28;20021;-62
2024/01/23 10:08:26;;;;;;;30.67;8.80;;;;;;;;;;5049791;28;20013;-62
2024/01/23 10:11:01;;;;;;;17.65;7.40;;;;;;;;;;5050792;28;20456;-62
2024/01/23 10:13:27;;;;;;;32.05;10.02;;;;;;;;;;5049189;28;20468;-62
2024/01/23 10:15:56;;;;;;;28.60;10.48;;;;;;;;;;5050961;28;20028;-62
2024/01/23 10:18:21;;;;;;;27.45;8.68;;;;;;;;;;5049648;28;20041;-62
2024/01/23 10:20:47;;;;;;;26.05;7.07;;;;;;;;;;5050574;28;20412;-62
2024/01/23 10:23:13;;;;;;;29.83;9.50;;;;;;;;;;5050906;28;20025;-62
2024/01/23 10:25:38;;;;;;;37.60;9.27;;;;;;;;;;5049167;28;20036;-62
2024/01/23 10:28:07;;;;;;;28.05;8.30;;;;;;;;;;5050360;28;20056;-62
2024/01/23 10:30:32;;;;;;;;;;;;;;;;;;5048746;28;20401;-62
2024/01/23 10:32:58;;;;;;;28.00;8.75;;;;;;;;;;5048917;28;20365;-62
2024/01/23 10:35:24;;;;;;;34.60;9.70;;;;;;;;;;5049072;28;20037;-62
2024/01/23 10:37:51;;;;;;;40.25;10.25;;;;;;;;;;5050068;28;20066;-62
2024/01/23 10:40:23;;;;;;;21.20;7.75;;;;;;;;;;5048714;28;20029;-62
2024/01/23 10:42:49;;;;;;;25.23;7.95;;;;;;;;;;5050292;28;20361;-64
2024/01/23 10:45:16;;;;;;;36.60;10.10;;;;;;;;;;5049034;28;20040;-62
2024/01/23 10:47:42;;;;;;;19.27;7.77;;;;;;;;;;5050172;28;20092;-62
2024/01/23 10:50:07;;;;;;;25.67;7.07;;;;;;;;;;5048892;28;20179;-62
2024/01/23 10:52:36;;;;;;;29.73;9.35;;;;;;;;;;5050951;28;20025;-62
2024/01/23 10:55:03;;;;;;;26.95;9.07;;;;;;;;;;5049091;28;20128;-62
2024/01/23 10:57:32;;;;;;;22.05;9.57;;;;;;;;;;5050289;28;20036;-62
2024/01/23 10:59:59;;;;;;;39.20;12.60;;;;;;;;;;5052250;28;20082;-62
2024/01/23 11:02:37;;;;;;;29.23;8.48;;;;;;;;;;5054312;28;20469;-62
2024/01/23 11:05:03;;;;;;;26.07;7.90;;;;;;;;;;5052583;28;20171;-62
2024/01/23 11:07:44;;;;;;;37.35;9.45;;;;;;;;;;5054066;28;20490;-62
2024/01/23 11:10:14;;;;;;;31.45;8.57;;;;;;;;;;5052578;28;20033;-62
2024/01/23 11:12:50;;;;;;;30.85;7.70;;;;;;;;;;5051018;28;20024;-62
2024/01/23 11:15:16;;;;;;;26.92;10.30;;;;;;;;;;5052433;28;20041;-62
2024/01/23 11:17:41;;;;;;;34.33;8.60;;;;;;;;;;5053872;28;20025;-62
2024/01/23 11:20:08;;;;;;;28.55;8.10;;;;;;;;;;5050723;28;20115;-62
2024/01/23 11:22:34;;;;;;;50.20;11.77;;;;;;;;;;5052105;28;20049;-62
2024/01/23 11:24:59;;;;;;;23.50;5.82;;;;;;;;;;5052386;28;20494;-62
2024/01/23 11:27:25;;;;;;;35.93;12.03;;;;;;;;;;5053036;28;20024;-62
2024/01/23 11:29:51;;;;;;;25.38;9.85;;;;;;;;;;5051055;28;20447;-62
2024/01/23 11:32:18;;;;;;;24.23;7.78;;;;;;;;;;5053470;28;20353;-62
2024/01/23 11:34:43;;;;;;;32.53;8.60;;;;;;;;;;5051153;28;20043;-62
2024/01/23 11:37:28;;;;;;;21.65;7.60;;;;;;;;;;5051737;28;20025;-62
2024/01/23 11:39:53;;;;;;;26.20;7.05;;;;;;;;;;5050629;28;20434;-62
2024/01/23 11:42:19;;;;;;;34.43;9.73;;;;;;;;;;5052652;28;20103;-62
2024/01/23 11:44:44;;;;;;;34.00;11.27;;;;;;;;;;5051312;28;20025;-62
2024/01/23 11:47:09;;;;;;;40.60;9.47;;;;;;;;;;5053124;28;20360;-62
2024/01/23 11:49:35;;;;;;;34.50;8.10;;;;;;;;;;5050750;28;20057;-62
2024/01/23 11:52:00;;;;;;;34.22;8.02;;;;;;;;;;5052809;28;20459;-62
2024/01/23 11:54:25;;;;;;;16.85;6.97;;;;;;;;;;5050741;28;20112;-62
2024/01/23 11:56:51;;;;;;;32.87;8.40;;;;;;;;;;5052426;28;20031;-63
2024/01/23 11:59:16;;;;;;;31.65;8.75;;;;;;;;;;5051450;28;20416;-62
2024/01/23 12:01:42;;;;;;;37.77;8.00;;;;;;;;;;5052676;28;20099;-62
2024/01/23 12:04:08;;;;;;;22.20;7.35;;;;;;;;;;5051314;28;20045;-62
2024/01/23 12:06:33;;;;;;;31.90;9.25;;;;;;;;;;5052782;28;20044;-62
2024/01/23 12:08:58;;;;;;;38.85;9.32;;;;;;;;;;5052928;28;20188;-62
2024/01/23 12:11:24;;;;;;;42.35;10.95;;;;;;;;;;5050965;28;20112;-62
2024/01/23 12:13:50;;;;;;;43.92;9.20;;;;;;;;;;5052750;28;20079;-62
2024/01/23 12:16:16;;;;;;;17.75;5.47;;;;;;;;;;5051316;28;20579;-62
2024/01/23 12:18:41;;;;;;;39.20;9.43;;;;;;;;;;5052193;28;20102;-62
2024/01/23 12:21:07;;;;;;;26.07;7.13;;;;;;;;;;5051123;28;20036;-62
2024/01/23 12:23:32;;;;;;;21.38;8.68;;;;;;;;;;5052757;28;20498;-62
2024/01/23 12:25:58;;;;;;;23.40;8.02;;;;;;;;;;5050360;28;20115;-62
2024/01/23 12:28:23;;;;;;;19.42;8.15;;;;;;;;;;5052460;28;20024;-62
2024/01/23 12:30:49;;;;;;;26.80;7.32;;;;;;;;;;5050737;28;20476;-62
2024/01/23 12:33:15;;;;;;;37.53;9.32;;;;;;;;;;5051980;28;20017;-62
2024/01/23 12:35:41;;;;;;;31.25;9.15;;;;;;;;;;5050765;28;20041;-62
2024/01/23 12:38:06;;;;;;;32.17;9.50;;;;;;;;;;5051408;28;20017;-62
2024/01/23 12:40:31;;;;;;;32.65;8.68;;;;;;;;;;5050242;28;20045;-62
2024/01/23 12:42:57;;;;;;;30.77;8.13;;;;;;;;;;5051718;28;20025;-62
2024/01/23 12:45:23;;;;;;;33.08;8.68;;;;;;;;;;5050695;28;20094;-62
2024/01/23 12:47:50;;;;;;;29.52;8.50;;;;;;;;;;5051577;28;20088;-62
2024/01/23 12:50:20;;;;;;;32.83;10.95;;;;;;;;;;5050486;28;20040;-62
2024/01/23 12:52:47;;;;;;;23.13;6.40;;;;;;;;;;5051952;28;20412;-62
2024/01/23 12:55:13;;;;;;;35.10;10.45;;;;;;;;;;5050502;28;20060;-62
2024/01/23 12:57:38;;;;;;;28.08;9.18;;;;;;;;;;5051274;28;20017;-62
2024/01/23 13:00:04;;;;;;;32.00;7.77;;;;;;;;;;5050471;28;20066;-62
2024/01/23 13:02:29;;;;;;;27.05;7.15;;;;;;;;;;5051546;28;20056;-62
2024/01/23 13:04:54;;;;;;;27.88;8.18;;;;;;;;;;5049697;28;20032;-62
2024/01/23 13:07:20;;;;;;;29.40;9.03;;;;;;;;;;5051788;28;20066;-62
2024/01/23 13:09:45;;;;;;;36.47;9.20;;;;;;;;;;5049896;28;20450;-62
2024/01/23 13:12:10;;;;;;;35.83;9.87;;;;;;;;;;5051340;28;20423;-62
2024/01/23 13:14:36;;;;;;;22.75;7.35;;;;;;;;;;5050142;28;20459;-62
2024/01/23 13:17:01;;;;;;;27.58;8.68;;;;;;;;;;5051696;28;20028;-62
2024/01/23 13:19:26;;;;;;;27.45;8.93;;;;;;;;;;5049885;28;20040;-62
2024/01/23 13:21:51;;;;;;;35.80;8.83;;;;;;;;;;5050784;28;20104;-62
2024/01/23 13:24:16;;;;;;;21.53;5.93;;;;;;;;;;5050153;28;20416;-62
2024/01/23 13:26:42;;;;;;;41.90;9.15;;;;;;;;;;5050769;28;20778;-62
2024/01/23 13:29:09;;;;;;;29.83;8.38;;;;;;;;;;5050059;28;20009;-61
2024/01/23 13:31:35;;;;;;;38.83;11.65;;;;;;;;;;5051225;28;20025;-62
2024/01/23 13:34:00;;;;;;;28.77;7.38;;;;;;;;;;5050869;28;20079;-62
2024/01/23 13:36:25;;;;;;;38.60;11.05;;;;;;;;;;5049805;28;20029;-62
2024/01/23 13:38:50;;;;;;;34.83;10.88;;;;;;;;;;5050795;28;20447;-62
2024/01/23 13:41:16;;;;;;;29.50;9.27;;;;;;;;;;5049252;28;20112;-62
2024/01/23 13:43:42;;;;;;;30.77;8.75;;;;;;;;;;5051067;28;20443;-62
2024/01/23 13:46:07;;;;;;;30.60;10.88;;;;;;;;;;5049426;28;20040;-62
2024/01/23 13:48:33;;;;;;;27.42;7.85;;;;;;;;;;5050808;28;20036;-62
2024/01/23 13:50:58;;;;;;;30.17;8.60;;;;;;;;;;5049353;28;20094;-62
2024/01/23 13:53:23;;;;;;;24.47;8.20;;;;;;;;;;5050756;28;20095;-62
2024/01/23 13:55:48;;;;;;;33.13;8.93;;;;;;;;;;5047100;28;20570;-62
2024/01/23 13:58:14;;;;;;;34.83;6.70;;;;;;;;;;5048913;28;20017;-62
2024/01/23 14:00:39;;;;;;;21.93;7.40;;;;;;;;;;5047010;28;20454;-62
2024/01/23 14:03:04;;;;;;;27.27;8.83;;;;;;;;;;5048581;28;20475;-62
2024/01/23 14:05:29;;;;;;;34.13;10.20;;;;;;;;;;5047408;28;20444;-62
2024/01/23 14:07:55;;;;;;;17.15;5.60;;;;;;;;;;5048614;28;20490;-62
2024/01/23 14:10:20;;;;;;;26.05;9.18;;;;;;;;;;5048170;28;20029;-62
2024/01/23 14:12:46;;;;;;;29.58;6.80;;;;;;;;;;5050623;28;20017;-62
2024/01/23 14:15:11;;;;;;;27.52;8.90;;;;;;;;;;5049121;28;20459;-62
2024/01/23 14:17:37;;;;;;;29.05;9.85;;;;;;;;;;5049908;28;20099;-62
2024/01/23 14:20:04;;;;;;;23.52;8.98;;;;;;;;;;5049218;28;20116;-62